Time;durP1;ratioP1;P1;durP2;ratioP2;P2;SDS_P1;SDS_P2;PMS_P1;PMS_P2;Temp;Humidity;BMP_temperature;BMP_pressure;BME280_temperature;BME280_humidity;BME280_pressure;Samples;Min_cycle;Max_cycle;Signal;HPM_P1;HPM_P2
2022/06/09 00:00:57;;;;;;;9.23;6.53;;;;;;;18.37;69.45;100123.41;1731879;82;22069;-72
2022/06/09 00:03:35;;;;;;;10.97;6.70;;;;;;;18.30;69.46;100121.75;1731368;81;21484;-72
2022/06/09 00:06:02;;;;;;;7.17;5.47;;;;;;;18.15;69.33;100115.45;1731376;81;22193;-72
2022/06/09 00:08:29;;;;;;;6.47;5.17;;;;;;;18.09;69.89;100122.92;1731875;81;21635;-72
2022/06/09 00:11:00;;;;;;;6.80;5.00;;;;;;;18.03;70.27;100121.48;1732945;81;21485;-73
2022/06/09 00:13:27;;;;;;;5.20;4.70;;;;;;;18.03;70.27;100121.48;1745567;81;21504;-72
2022/06/09 00:15:54;;;;;;;5.23;4.40;;;;;;;17.92;70.05;100116.95;1747157;81;21456;-72
2022/06/09 00:18:22;;;;;;;6.70;4.90;;;;;;;17.92;70.05;100116.95;1786127;80;21562;-72
2022/06/09 00:20:49;;;;;;;6.03;4.40;;;;;;;17.88;69.79;100120.62;1741975;81;22045;-72
2022/06/09 00:23:17;;;;;;;5.63;4.40;;;;;;;17.88;69.79;100120.62;1745447;81;21506;-72
2022/06/09 00:25:46;;;;;;;6.37;4.50;;;;;;;17.93;69.18;100116.39;1736175;81;21613;-72
2022/06/09 00:28:13;;;;;;;5.00;4.50;;;;;;;17.54;68.89;100126.97;1735618;81;21467;-73
2022/06/09 00:30:40;;;;;;;6.93;4.23;;;;;;;17.54;68.89;100126.97;1733155;81;21547;-72
2022/06/09 00:33:07;;;;;;;4.63;4.00;;;;;;;17.43;69.72;100120.25;1731558;82;21517;-71
2022/06/09 00:35:33;;;;;;;5.20;4.37;;;;;;;17.33;69.99;100110.52;1735550;81;21424;-72
2022/06/09 00:38:01;;;;;;;4.80;4.30;;;;;;;17.32;70.21;100117.59;1738866;81;21483;-72
2022/06/09 00:40:28;;;;;;;5.40;4.40;;;;;;;17.32;70.31;100117.59;1732117;82;21368;-72
2022/06/09 00:42:55;;;;;;;5.00;4.50;;;;;;;17.31;70.38;100117.38;1731942;82;21316;-72
2022/06/09 00:45:33;;;;;;;6.63;4.50;;;;;;;17.27;70.58;100121.78;1737788;81;21495;-72
2022/06/09 00:48:39;;;;;;;5.87;4.03;;;;;;;17.24;70.83;100117.00;1731503;81;21518;-72
2022/06/09 00:51:43;;;;;;;5.10;4.27;;;;;;;17.22;70.65;100116.53;1731910;81;21790;-72
2022/06/09 00:54:20;;;;;;;5.37;4.23;;;;;;;17.22;70.65;100116.53;1732072;81;21404;-72
2022/06/09 00:56:54;;;;;;;4.90;4.40;;;;;;;17.24;70.93;100123.75;1732271;82;21497;-71
2022/06/09 00:59:26;;;;;;;6.20;4.93;;;;;;;17.23;70.82;100120.81;1731082;82;21343;-72
2022/06/09 01:01:55;;;;;;;5.87;4.60;;;;;;;17.22;70.77;100124.08;1733510;81;21342;-71
2022/06/09 01:04:22;;;;;;;5.93;4.47;;;;;;;17.38;70.16;100119.05;1742349;81;21367;-71
2022/06/09 01:06:52;;;;;;;6.57;4.33;;;;;;;17.42;69.77;100120.02;1732513;81;21471;-72
2022/06/09 01:09:23;;;;;;;5.87;4.33;;;;;;;17.45;69.69;100113.98;1735823;81;21375;-71
2022/06/09 01:11:53;;;;;;;5.03;4.40;;;;;;;17.48;69.67;100114.71;1752282;81;21283;-71
2022/06/09 01:14:24;;;;;;;6.40;4.43;;;;;;;17.32;69.97;100118.95;1723885;81;21034;-72
2022/06/09 01:17:08;;;;;;;6.47;5.10;;;;;;;17.31;70.11;100117.38;1723187;83;21475;-71
2022/06/09 01:20:28;;;;;;;5.20;4.70;;;;;;;17.32;70.31;100120.30;1722748;83;21336;-71
2022/06/09 01:23:03;;;;;;;5.07;4.47;;;;;;;17.33;70.47;100120.53;1755227;80;21415;-71
2022/06/09 01:25:56;;;;;;;5.70;4.43;;;;;;;17.34;70.48;100117.53;1736801;81;21422;-71
2022/06/09 01:29:03;;;;;;;5.30;4.80;;;;;;;17.36;70.39;100118.56;1730598;82;21465;-72
2022/06/09 01:31:36;;;;;;;6.00;4.70;;;;;;;17.58;69.84;100114.42;1733119;80;21560;-72
2022/06/09 01:34:31;;;;;;;5.27;4.30;;;;;;;17.47;70.15;100113.13;1739392;81;22002;-72
2022/06/09 01:37:12;;;;;;;5.93;4.80;;;;;;;17.51;70.64;100110.03;1723661;83;21503;-72
2022/06/09 01:39:58;;;;;;;5.50;4.83;;;;;;;17.51;70.64;100110.03;1728567;81;21467;-72
2022/06/09 01:42:43;;;;;;;5.77;4.63;;;;;;;17.65;69.97;100114.52;1741573;81;21681;-73
2022/06/09 01:45:21;;;;;;;8.33;4.77;;;;;;;17.65;70.12;100108.55;1757594;80;21898;-73
2022/06/09 01:48:11;;;;;;;6.67;4.50;;;;;;;17.65;70.12;100108.55;1735878;81;21975;-71
2022/06/09 01:51:03;;;;;;;7.20;4.87;;;;;;;17.74;70.40;100112.06;1738598;81;21533;-71
2022/06/09 01:53:48;;;;;;;6.70;4.90;;;;;;;17.72;70.37;100111.58;1746917;81;21511;-72
2022/06/09 01:56:35;;;;;;;7.17;5.10;;;;;;;17.73;70.52;100113.72;1756341;80;21432;-72
2022/06/09 01:59:09;;;;;;;6.57;5.07;;;;;;;17.75;69.92;100117.70;1739089;81;21604;-72
2022/06/09 02:01:57;;;;;;;5.87;4.70;;;;;;;17.75;69.92;100117.70;1738604;81;21362;-72
2022/06/09 02:04:31;;;;;;;5.43;4.93;;;;;;;17.79;70.04;100124.09;1705736;81;21392;-71
2022/06/09 02:06:58;;;;;;;6.23;5.00;;;;;;;17.81;69.96;100134.03;1723895;82;22088;-72
2022/06/09 02:09:29;;;;;;;6.37;4.87;;;;;;;17.81;70.08;100121.09;1722214;81;21452;-71
2022/06/09 02:11:56;;;;;;;6.10;4.92;;;;;;;17.81;70.08;100121.09;1771337;81;21471;-71
2022/06/09 02:14:27;;;;;;;5.93;4.93;;;;;;;17.85;70.11;100119.34;1752020;81;21043;-72
2022/06/09 02:16:55;;;;;;;6.97;5.07;;;;;;;17.88;70.29;100120.06;1745709;81;21873;-72
2022/06/09 02:19:23;;;;;;;5.70;5.00;;;;;;;17.94;70.44;100124.77;1743856;81;21580;-71
2022/06/09 02:21:50;;;;;;;5.63;4.77;;;;;;;17.94;70.44;100124.77;1737873;81;21559;-72
2022/06/09 02:24:16;;;;;;;5.53;4.97;;;;;;;17.96;70.40;100123.31;1756915;80;21998;-71
2022/06/09 02:26:43;;;;;;;6.40;5.07;;;;;;;18.09;70.52;100137.00;1733399;81;21567;-71
2022/06/09 02:29:11;;;;;;;7.53;4.97;;;;;;;18.13;70.63;100132.54;1733375;81;21538;-72
2022/06/09 02:31:38;;;;;;;7.10;5.97;;;;;;;18.13;70.63;100132.54;1727084;81;22160;-71
2022/06/09 02:34:05;;;;;;;7.10;5.70;;;;;;;18.28;70.14;100130.72;1734264;81;22301;-71
2022/06/09 02:36:31;;;;;;;7.37;6.20;;;;;;;18.28;70.14;100130.72;1728241;82;22379;-72
2022/06/09 02:38:58;;;;;;;8.00;5.47;;;;;;;18.36;69.98;100131.29;1737290;80;21952;-72
2022/06/09 02:41:24;;;;;;;6.23;5.47;;;;;;;18.45;69.55;100131.27;1730335;82;21739;-72
2022/06/09 02:43:51;;;;;;;7.03;5.77;;;;;;;18.54;68.80;100132.62;1730342;81;21735;-71
2022/06/09 02:46:18;;;;;;;6.33;5.60;;;;;;;18.64;68.32;100137.12;1731111;82;21792;-72
2022/06/09 02:48:44;;;;;;;6.40;5.70;;;;;;;18.74;67.74;100138.73;1736838;81;22135;-72
2022/06/09 02:51:20;;;;;;;6.47;5.77;;;;;;;18.84;67.27;100141.09;1736507;81;21828;-72
2022/06/09 02:53:47;;;;;;;6.87;5.50;;;;;;;18.79;67.40;100136.40;1737390;81;21753;-72
2022/06/09 02:56:15;;;;;;;6.13;4.90;;;;;;;18.98;66.79;100134.91;1736081;81;21771;-72
2022/06/09 02:58:42;;;;;;;8.07;5.30;;;;;;;19.13;66.05;100138.23;1734538;81;21990;-72
2022/06/09 03:01:09;;;;;;;8.43;7.53;;;;;;;19.24;65.45;100141.36;1737027;81;21728;-73
2022/06/09 03:03:36;;;;;;;8.70;7.63;;;;;;;19.32;65.06;100133.21;1734912;81;21762;-72
2022/06/09 03:06:03;;;;;;;7.20;6.50;;;;;;;19.41;64.87;100133.97;1739243;81;21739;-73
2022/06/09 03:08:32;;;;;;;7.13;6.27;;;;;;;19.52;64.59;100136.30;1736344;81;22165;-72
2022/06/09 03:10:58;;;;;;;6.33;5.10;;;;;;;19.70;63.44;100141.08;1738064;81;21729;-72
2022/06/09 03:13:25;;;;;;;6.50;5.27;;;;;;;19.70;63.44;100141.08;1731748;82;21124;-72
2022/06/09 03:15:52;;;;;;;8.13;4.90;;;;;;;19.77;62.66;100143.49;1730627;81;21008;-73
2022/06/09 03:18:20;;;;;;;7.00;5.00;;;;;;;19.84;61.94;100135.66;1736147;81;21740;-70
2022/06/09 03:20:48;;;;;;;6.53;5.10;;;;;;;19.78;62.01;100141.60;1736983;81;21860;-72
2022/06/09 03:23:15;;;;;;;5.50;4.83;;;;;;;19.97;61.69;100139.21;1739578;81;21042;-71
2022/06/09 03:25:43;;;;;;;6.43;5.30;;;;;;;19.99;61.37;100147.03;1735443;81;21601;-72
2022/06/09 03:28:10;;;;;;;6.90;5.00;;;;;;;20.07;60.69;100140.73;1732043;81;20987;-72
2022/06/09 03:30:38;;;;;;;6.40;5.67;;;;;;;20.10;59.93;100140.08;1750197;81;21626;-72
2022/06/09 03:33:05;;;;;;;6.20;4.93;;;;;;;20.15;59.62;100133.91;1739691;81;21058;-72
2022/06/09 03:35:32;;;;;;;5.70;5.00;;;;;;;20.34;59.51;100136.14;1746364;81;20963;-72
2022/06/09 03:37:58;;;;;;;6.37;5.27;;;;;;;20.53;59.98;100133.52;1739053;81;21122;-72
2022/06/09 03:40:25;;;;;;;8.03;6.10;;;;;;;20.66;60.35;100130.28;1743873;81;21047;-71
2022/06/09 03:42:52;;;;;;;7.90;5.63;;;;;;;20.77;60.47;100130.10;1741002;81;21090;-71
2022/06/09 03:45:21;;;;;;;7.97;5.67;;;;;;;20.90;60.92;100122.78;1743439;81;21583;-72
2022/06/09 03:47:49;;;;;;;6.30;5.60;;;;;;;20.98;61.20;100124.59;1742298;81;21881;-72
2022/06/09 03:50:21;;;;;;;8.30;5.80;;;;;;;21.04;61.59;100129.46;1744102;81;21676;-72
2022/06/09 03:52:48;;;;;;;7.40;5.20;;;;;;;21.11;61.67;100128.91;1742753;81;21129;-72
2022/06/09 03:55:15;;;;;;;6.10;5.50;;;;;;;21.23;61.71;100130.84;1741769;81;20971;-72
2022/06/09 03:57:42;;;;;;;7.93;5.70;;;;;;;21.31;61.50;100126.64;1739360;81;21014;-71
2022/06/09 04:00:17;;;;;;;6.13;5.37;;;;;;;21.41;61.22;100125.43;1740861;81;22193;-72
2022/06/09 04:02:44;;;;;;;6.67;4.77;;;;;;;21.47;60.96;100126.80;1741785;81;21678;-72
2022/06/09 04:05:10;;;;;;;5.97;5.17;;;;;;;21.47;60.88;100121.36;1745032;81;21090;-72
2022/06/09 04:07:38;;;;;;;7.67;5.53;;;;;;;21.57;60.47;100117.39;1745445;81;21027;-72
2022/06/09 04:10:05;;;;;;;6.27;5.50;;;;;;;21.66;60.08;100111.84;1750338;81;21551;-71
2022/06/09 04:12:31;;;;;;;6.10;5.03;;;;;;;21.75;59.43;100114.66;1744795;81;21055;-72
2022/06/09 04:15:00;;;;;;;6.73;5.10;;;;;;;21.87;59.02;100116.54;1747076;81;21868;-72
2022/06/09 04:17:26;;;;;;;8.10;5.60;;;;;;;21.98;58.55;100112.22;1733579;81;21075;-72
2022/06/09 04:19:53;;;;;;;6.67;5.60;;;;;;;22.16;58.20;100115.47;1733592;80;20963;-72
2022/06/09 04:22:20;;;;;;;6.33;5.37;;;;;;;22.24;58.07;100113.73;1745840;81;21578;-71
2022/06/09 04:24:47;;;;;;;5.83;5.30;;;;;;;22.31;57.78;100114.50;1747651;81;21052;-71
2022/06/09 04:27:13;;;;;;;7.63;5.10;;;;;;;22.40;57.65;100108.34;1752240;81;21153;-71
2022/06/09 04:29:40;;;;;;;6.30;5.20;;;;;;;22.54;57.51;100107.38;1745240;81;21101;-71
2022/06/09 04:32:07;;;;;;;7.67;5.07;;;;;;;22.60;57.54;100103.81;1737630;81;21130;-72
2022/06/09 04:34:34;;;;;;;6.57;5.33;;;;;;;22.73;57.29;100105.89;1747881;80;21048;-72
2022/06/09 04:37:01;;;;;;;8.43;4.67;;;;;;;22.86;56.37;100106.04;1735074;81;20991;-71
2022/06/09 04:39:28;;;;;;;6.30;4.70;;;;;;;22.97;55.95;100105.78;1740925;81;21230;-71
2022/06/09 04:41:55;;;;;;;7.80;4.50;;;;;;;23.06;55.60;100109.67;1739347;81;21087;-72
2022/06/09 04:44:21;;;;;;;6.17;5.13;;;;;;;23.16;55.20;100116.77;1738596;81;21016;-71
2022/06/09 04:46:49;;;;;;;7.33;5.17;;;;;;;23.25;55.00;100111.12;1737310;81;21558;-71
2022/06/09 04:49:15;;;;;;;7.00;5.00;;;;;;;23.36;54.83;100105.36;1738123;81;21078;-71
2022/06/09 04:51:42;;;;;;;6.03;4.50;;;;;;;23.48;54.29;100111.84;1737092;81;21158;-71
2022/06/09 04:54:09;;;;;;;5.33;4.57;;;;;;;23.59;53.93;100106.86;1749385;80;21039;-72
2022/06/09 04:56:37;;;;;;;5.83;5.23;;;;;;;23.74;53.73;100116.73;1762657;80;21044;-72
2022/06/09 04:59:04;;;;;;;5.43;4.60;;;;;;;23.85;53.44;100116.38;1769945;80;21641;-72
2022/06/09 05:01:32;;;;;;;6.13;4.40;;;;;;;23.95;53.31;100121.27;1764330;80;21515;-71
2022/06/09 05:04:00;;;;;;;5.67;4.50;;;;;;;24.13;52.84;100121.65;1765739;80;21496;-72
2022/06/09 05:06:28;;;;;;;7.97;5.67;;;;;;;24.20;52.33;100116.91;1757483;80;21565;-72
2022/06/09 05:08:55;;;;;;;8.83;6.67;;;;;;;24.30;52.10;100117.11;1762163;80;21185;-72
2022/06/09 05:11:24;;;;;;;10.57;8.13;;;;;;;24.41;52.13;100121.44;1760304;80;21036;-72
2022/06/09 05:13:52;;;;;;;8.10;6.53;;;;;;;24.56;51.50;100120.56;1760810;80;20996;-72
2022/06/09 05:16:18;;;;;;;8.23;6.03;;;;;;;24.68;51.00;100116.89;1760591;80;21236;-72
2022/06/09 05:18:46;;;;;;;7.47;5.20;;;;;;;24.77;50.48;100110.59;1739519;80;21024;-72
2022/06/09 05:21:12;;;;;;;6.77;5.20;;;;;;;24.96;49.22;100113.84;1762098;77;75133;-82
2022/06/09 05:23:38;;;;;;;7.33;5.30;;;;;;;25.12;48.31;100119.80;1688592;77;10000532;-80
2022/06/09 05:26:06;;;;;;;7.27;4.40;;;;;;;25.24;48.13;100112.19;1824076;77;21225;-81
2022/06/09 05:28:33;;;;;;;4.90;4.30;;;;;;;25.33;48.38;100113.28;1826204;77;21027;-81
2022/06/09 05:31:00;;;;;;;5.53;4.27;;;;;;;25.43;48.17;100114.59;1810379;78;21070;-81
2022/06/09 05:33:29;;;;;;;6.37;4.50;;;;;;;25.54;48.17;100116.14;1826421;78;21007;-81
2022/06/09 05:35:57;;;;;;;5.10;4.30;;;;;;;25.66;47.20;100114.53;1815467;77;21026;-82
2022/06/09 05:46:42;;;;;;;5.20;3.30;;;;;;;26.07;45.95;100116.88;1796760;78;21062;-71
2022/06/09 05:49:09;;;;;;;4.23;2.93;;;;;;;26.18;44.85;100108.78;1754777;81;21093;-72
2022/06/09 05:51:37;;;;;;;5.77;2.83;;;;;;;26.27;43.67;100114.76;1769639;79;21299;-72
2022/06/09 05:54:04;;;;;;;7.47;2.73;;;;;;;26.31;42.70;100112.84;1798119;79;21383;-72
2022/06/09 05:56:31;;;;;;;5.10;2.60;;;;;;;26.40;41.24;100113.92;1769875;79;21548;-72
2022/06/09 05:58:59;;;;;;;3.87;2.50;;;;;;;26.36;40.97;100112.52;1793222;79;21081;-72
2022/06/09 06:01:26;;;;;;;6.17;2.40;;;;;;;26.46;40.62;100118.49;1795199;79;21034;-72
2022/06/09 06:03:55;;;;;;;4.07;2.37;;;;;;;26.55;40.13;100118.40;1797386;79;22137;-78
2022/06/09 06:06:34;;;;;;;3.90;2.40;;;;;;;26.78;39.32;100114.70;1797746;79;21578;-80
2022/06/09 06:09:05;;;;;;;5.37;2.33;;;;;;;26.86;39.13;100113.03;1783977;79;20999;-80
2022/06/09 06:11:34;;;;;;;3.90;2.40;;;;;;;26.94;39.36;100112.50;1798265;78;21540;-80
2022/06/09 06:14:01;;;;;;;3.73;2.23;;;;;;;27.06;39.53;100121.03;1799573;79;20990;-80
2022/06/09 06:16:28;;;;;;;3.53;2.23;;;;;;;27.12;38.09;100116.78;1798488;79;21007;-79
2022/06/09 06:18:56;;;;;;;5.23;2.57;;;;;;;27.15;37.86;100122.09;1798039;79;21073;-80
2022/06/09 06:21:23;;;;;;;4.93;2.00;;;;;;;27.26;38.19;100121.60;1799388;79;21003;-73
2022/06/09 06:23:51;;;;;;;4.53;1.90;;;;;;;27.41;38.03;100119.17;1799084;79;21066;-74
2022/06/09 06:26:17;;;;;;;4.57;2.10;;;;;;;27.52;37.08;100111.79;1799063;79;21105;-74
2022/06/09 06:28:44;;;;;;;3.13;1.70;;;;;;;27.68;35.95;100112.86;1799036;79;21653;-74
2022/06/09 06:31:11;;;;;;;4.03;1.70;;;;;;;27.71;35.29;100110.73;1672765;78;10000062;-73
2022/06/09 06:33:38;;;;;;;4.83;1.90;;;;;;;27.77;35.29;100116.08;1809912;78;20946;-74
2022/06/09 06:36:05;;;;;;;3.60;2.00;;;;;;;27.86;35.26;100116.30;1804630;78;21716;-73
2022/06/09 06:38:32;;;;;;;2.93;1.90;;;;;;;28.08;33.51;100117.97;1817222;78;21302;-73
2022/06/09 06:40:59;;;;;;;4.10;1.93;;;;;;;28.18;34.01;100113.11;1785550;79;21172;-73
2022/06/09 06:43:25;;;;;;;3.50;2.00;;;;;;;28.31;33.98;100114.13;1816978;78;20928;-75
2022/06/09 06:45:52;;;;;;;3.30;2.17;;;;;;;28.38;33.42;100113.55;1798310;78;21022;-75
2022/06/09 06:48:18;;;;;;;5.30;2.60;;;;;;;28.45;33.80;100116.34;1798580;79;21182;-76
2022/06/09 06:50:46;;;;;;;3.70;2.30;;;;;;;28.57;34.08;100115.80;1797594;79;21191;-75
2022/06/09 06:53:13;;;;;;;4.13;2.60;;;;;;;28.68;33.53;100112.47;1797946;78;20983;-77
2022/06/09 06:55:40;;;;;;;4.00;2.27;;;;;;;28.74;32.98;100117.18;1799820;79;21014;-77
2022/06/09 06:58:07;;;;;;;3.37;2.20;;;;;;;28.79;33.24;100116.59;1797815;79;21043;-77
2022/06/09 07:00:35;;;;;;;4.07;2.40;;;;;;;28.86;32.96;100115.21;1794653;78;21081;-77
2022/06/09 07:03:02;;;;;;;4.73;2.20;;;;;;;28.95;32.32;100114.24;1797786;79;21096;-77
2022/06/09 07:05:29;;;;;;;5.00;2.43;;;;;;;28.94;32.38;100120.33;1797249;79;21065;-78
2022/06/09 07:07:59;;;;;;;6.23;2.40;;;;;;;28.93;32.64;100117.40;1796655;79;21029;-76
2022/06/09 07:10:26;;;;;;;3.73;2.47;;;;;;;28.97;31.76;100115.42;1797915;78;21014;-77
2022/06/09 07:12:52;;;;;;;7.17;3.03;;;;;;;29.03;32.41;100108.98;1797501;79;21081;-78
2022/06/09 07:15:19;;;;;;;5.73;3.10;;;;;;;29.17;32.59;100119.97;1777117;80;21096;-77
2022/06/09 07:17:46;;;;;;;4.47;2.57;;;;;;;29.32;32.76;100119.38;1795336;79;21039;-78
2022/06/09 07:20:13;;;;;;;4.67;2.83;;;;;;;29.47;32.02;100125.63;1794862;79;21086;-77
2022/06/09 07:22:40;;;;;;;4.73;2.37;;;;;;;29.60;31.53;100121.30;1794767;79;21029;-76
2022/06/09 07:25:08;;;;;;;6.90;2.73;;;;;;;29.68;31.45;100124.81;1794540;79;21042;-78
2022/06/09 07:27:37;;;;;;;7.60;2.60;;;;;;;29.78;31.45;100124.59;1794794;78;20998;-78
2022/06/09 07:30:04;;;;;;;6.77;2.90;;;;;;;29.85;29.58;100123.98;1794716;79;21034;-78
2022/06/09 07:32:31;;;;;;;11.20;3.40;;;;;;;29.91;29.92;100120.21;1794884;79;20999;-78
2022/06/09 07:34:59;;;;;;;6.13;2.53;;;;;;;29.95;29.96;100121.01;1794510;79;21030;-79
2022/06/09 07:37:26;;;;;;;5.10;2.37;;;;;;;29.98;30.51;100126.28;1791036;79;21093;-77
2022/06/09 07:39:53;;;;;;;5.10;2.73;;;;;;;30.04;30.96;100123.31;1795143;79;21093;-78
2022/06/09 07:42:20;;;;;;;7.23;3.27;;;;;;;30.14;31.26;100121.09;1795097;79;21046;-78
2022/06/09 07:44:48;;;;;;;5.10;2.50;;;;;;;30.21;31.30;100130.76;1791325;79;21066;-79
2022/06/09 07:47:16;;;;;;;5.07;2.43;;;;;;;30.26;30.80;100128.95;1795757;78;20964;-78
2022/06/09 07:49:43;;;;;;;4.20;2.40;;;;;;;30.34;30.33;100126.95;1795257;79;20991;-79
2022/06/09 07:52:11;;;;;;;5.40;2.37;;;;;;;30.42;30.91;100122.19;1795642;79;22107;-80
2022/06/09 07:54:38;;;;;;;3.80;2.17;;;;;;;30.51;30.78;100126.06;1796204;79;21109;-78
2022/06/09 07:57:06;;;;;;;4.43;2.43;;;;;;;30.66;30.02;100123.20;1795877;79;20939;-79
2022/06/09 07:59:32;;;;;;;5.07;2.57;;;;;;;30.60;30.38;100117.33;1795180;79;20963;-79
2022/06/09 08:01:59;;;;;;;4.40;1.80;;;;;;;30.63;30.62;100112.98;1794929;79;21010;-79
2022/06/09 08:04:25;;;;;;;3.53;1.70;;;;;;;30.76;30.91;100116.83;1792094;79;21249;-79
2022/06/09 08:06:52;;;;;;;4.63;2.00;;;;;;;30.87;28.73;100118.17;1794759;78;21074;-80
2022/06/09 08:09:18;;;;;;;5.50;1.90;;;;;;;30.92;28.87;100116.34;1796709;79;20998;-81
2022/06/09 08:11:46;;;;;;;7.40;3.13;;;;;;;30.90;28.84;100116.77;1797417;79;20991;-79
2022/06/09 08:14:14;;;;;;;16.53;6.77;;;;;;;30.77;29.00;100117.06;1797339;79;20979;-78
2022/06/09 08:16:40;;;;;;;5.17;2.73;;;;;;;30.58;29.46;100115.58;1793964;79;21094;-79
2022/06/09 08:19:06;;;;;;;5.37;2.43;;;;;;;30.56;29.28;100122.86;1796450;79;20971;-78
2022/06/09 08:21:33;;;;;;;5.43;2.23;;;;;;;30.65;28.71;100118.29;1797496;79;21552;-78
2022/06/09 08:24:00;;;;;;;4.70;1.87;;;;;;;30.61;28.56;100122.45;1795967;79;21422;-78
2022/06/09 08:26:26;;;;;;;5.57;2.97;;;;;;;30.54;29.13;100121.72;1795592;79;20999;-77
2022/06/09 08:28:53;;;;;;;4.73;1.70;;;;;;;30.61;29.73;100125.80;1795481;79;21426;-77
2022/06/09 08:31:19;;;;;;;5.27;2.10;;;;;;;30.81;30.48;100110.92;1797948;79;21075;-78
2022/06/09 08:33:47;;;;;;;5.10;2.60;;;;;;;31.06;29.49;100118.97;1794369;78;21073;-77
2022/06/09 08:36:14;;;;;;;4.07;2.10;;;;;;;31.29;29.28;100114.23;1795449;79;20994;-78
2022/06/09 08:38:43;;;;;;;5.40;2.30;;;;;;;31.54;29.01;100118.16;1796755;79;21038;-79
2022/06/09 08:41:29;;;;;;;3.47;2.20;;;;;;;31.76;28.39;100115.95;1798887;79;21944;-78
2022/06/09 08:44:20;;;;;;;2.60;1.57;;;;;;;31.95;27.47;100113.17;1795397;79;21065;-77
2022/06/09 08:47:14;;;;;;;4.30;2.02;;;;;;;32.14;26.45;100111.14;1794409;79;26342;-77
2022/06/09 08:50:16;;;;;;;4.60;2.10;;;;;;;32.41;26.03;100105.66;1794039;79;21061;-77
2022/06/09 08:53:11;;;;;;;3.67;1.92;;;;;;;32.45;26.79;100105.03;1795704;79;21070;-78
2022/06/09 08:55:46;;;;;;;5.17;2.87;;;;;;;32.49;26.90;100104.20;1795307;79;21530;-79
2022/06/09 08:58:39;;;;;;;8.95;3.50;;;;;;;32.60;27.03;100108.34;1793026;79;21089;-78
2022/06/09 09:01:35;;;;;;;4.47;1.85;;;;;;;32.70;27.62;100107.39;1795324;79;21096;-78
2022/06/09 09:04:27;;;;;;;5.10;1.65;;;;;;;32.79;26.73;100104.72;1794711;79;21532;-77
2022/06/09 09:07:25;;;;;;;4.35;2.37;;;;;;;32.92;24.99;100102.31;1794592;79;21085;-77
2022/06/09 09:10:15;;;;;;;5.53;2.40;;;;;;;32.91;25.31;100101.36;1788366;79;21847;-78
2022/06/09 09:12:50;;;;;;;5.58;2.17;;;;;;;32.94;25.33;100106.05;1791682;79;21352;-79
2022/06/09 09:15:40;;;;;;;3.45;1.60;;;;;;;33.08;25.56;100105.05;1795305;79;21140;-78
2022/06/09 09:18:35;;;;;;;3.92;1.75;;;;;;;33.26;25.16;100104.11;1792982;79;21014;-78
2022/06/09 09:21:17;;;;;;;5.62;2.33;;;;;;;33.29;23.93;100104.66;1793311;79;21034;-77
2022/06/09 09:24:29;;;;;;;4.58;2.30;;;;;;;33.19;24.72;100099.32;1794466;79;21135;-79
2022/06/09 09:27:20;;;;;;;3.80;1.72;;;;;;;33.21;24.54;100099.08;1795996;79;21058;-79
2022/06/09 09:30:16;;;;;;;4.30;2.05;;;;;;;33.31;25.12;100095.94;1795603;79;22743;-77
2022/06/09 09:32:51;;;;;;;4.33;1.80;;;;;;;33.23;24.53;100100.81;1795205;79;21129;-78
2022/06/09 09:35:25;;;;;;;5.50;2.70;;;;;;;33.21;23.97;100093.55;1796432;79;21043;-77
2022/06/09 09:37:55;;;;;;;7.15;3.25;;;;;;;33.21;24.89;100096.92;1796634;79;21246;-79
2022/06/09 09:40:39;;;;;;;5.87;2.87;;;;;;;33.34;25.41;100095.88;1796366;79;21046;-78
2022/06/09 09:43:11;;;;;;;3.00;2.02;;;;;;;33.48;25.32;100088.50;1797311;79;21010;-79
2022/06/09 09:45:46;;;;;;;6.28;3.20;;;;;;;33.47;25.02;100078.64;1798250;79;21112;-78
2022/06/09 09:48:24;;;;;;;5.28;2.20;;;;;;;33.44;25.59;100082.27;1792790;79;21477;-77
2022/06/09 09:51:01;;;;;;;3.37;1.60;;;;;;;33.54;25.21;100082.69;1798072;79;21227;-79
2022/06/09 09:53:39;;;;;;;2.83;1.50;;;;;;;33.57;25.05;100080.45;1796226;78;21038;-77
2022/06/09 09:56:29;;;;;;;2.80;1.37;;;;;;;33.52;25.49;100078.16;1789714;79;20994;-78
2022/06/09 09:58:58;;;;;;;1.75;1.35;;;;;;;33.69;25.07;100078.41;1793413;79;21039;-78
2022/06/09 10:08:35;;;;;;;2.92;1.40;;;;;;;33.70;24.15;100078.59;1797187;79;21109;-78
2022/06/09 10:10:14;;;;;;;4.50;1.52;;;;;;;33.39;24.55;100075.98;1777151;79;21010;-77
2022/06/09 10:12:41;;;;;;;1.57;1.40;;;;;;;33.41;24.92;100070.66;1774807;79;21038;-78
2022/06/09 10:15:15;;;;;;;1.65;1.30;;;;;;;33.47;24.00;100071.72;1776829;79;20994;-77
2022/06/09 10:18:10;;;;;;;2.75;1.30;;;;;;;33.46;23.85;100061.23;1793700;79;21529;-80
2022/06/09 10:21:10;;;;;;;4.22;1.30;;;;;;;33.53;24.58;100068.64;1793184;80;20979;-79
2022/06/09 10:23:57;;;;;;;5.00;1.80;;;;;;;33.58;24.28;100064.78;1797359;79;20923;-80
2022/06/09 10:26:36;;;;;;;2.58;1.60;;;;;;;33.77;23.99;100070.75;1797731;79;21019;-80
2022/06/09 10:29:08;;;;;;;3.30;1.50;;;;;;;33.93;23.67;100059.72;1797560;80;21011;-79
2022/06/09 10:31:53;;;;;;;4.65;1.52;;;;;;;34.11;23.87;100059.95;1797339;79;21458;-79
2022/06/09 10:34:45;;;;;;;5.20;1.67;;;;;;;34.18;22.85;100052.85;1794544;80;21609;-80
2022/06/09 10:37:52;;;;;;;2.67;1.37;;;;;;;34.24;23.64;100053.91;1796973;79;21000;-79
2022/06/09 10:40:45;;;;;;;1.77;1.32;;;;;;;34.34;23.41;100049.33;1794647;80;21003;-78
2022/06/09 10:43:46;;;;;;;1.82;1.20;;;;;;;34.38;23.23;100048.62;1793925;80;21026;-81
2022/06/09 10:46:26;;;;;;;2.27;1.57;;;;;;;34.53;23.47;100048.50;1794389;79;21471;-80
2022/06/09 10:55:24;;;;;;;4.67;1.30;;;;;;;34.90;22.37;100049.16;1768518;78;21060;-79
2022/06/09 10:58:00;;;;;;;3.10;1.60;;;;;;;34.92;22.11;100042.56;1780600;79;21018;-80
2022/06/09 11:00:37;;;;;;;4.62;1.50;;;;;;;34.96;22.34;100036.31;1795027;79;21273;-79
2022/06/09 11:03:24;;;;;;;3.00;1.70;;;;;;;35.08;22.80;100032.05;1796159;79;21054;-80
2022/06/09 11:05:56;;;;;;;3.72;1.50;;;;;;;35.27;23.36;100043.62;1795861;79;21011;-80
2022/06/09 11:08:29;;;;;;;3.42;1.40;;;;;;;35.47;21.89;100036.51;1793222;79;20968;-79
2022/06/09 11:11:16;;;;;;;3.58;1.50;;;;;;;35.61;22.26;100034.76;1794293;80;20988;-78
2022/06/09 11:13:57;;;;;;;2.20;1.57;;;;;;;35.70;22.34;100034.89;1795333;79;21668;-80
2022/06/09 11:16:44;;;;;;;3.45;1.60;;;;;;;35.65;21.96;100038.20;1795094;79;21062;-79
2022/06/09 11:19:49;;;;;;;2.52;1.45;;;;;;;35.50;22.13;100042.58;1794563;79;21125;-79
2022/06/09 11:22:48;;;;;;;2.77;1.40;;;;;;;35.50;22.13;100042.58;1794016;79;21038;-78
2022/06/09 11:25:53;;;;;;;4.83;1.62;;;;;;;35.32;22.29;100047.88;1711823;83;21120;-78
2022/06/09 11:28:50;;;;;;;3.00;1.70;;;;;;;35.12;22.42;100046.63;1712097;83;21259;-78
2022/06/09 11:31:48;;;;;;;2.27;1.60;;;;;;;34.99;22.83;100041.77;1786676;79;21086;-78
2022/06/09 11:34:52;;;;;;;2.67;1.52;;;;;;;34.84;23.25;100044.73;1765345;80;21006;-80
2022/06/09 11:37:46;;;;;;;2.37;1.57;;;;;;;34.66;23.54;100049.97;1786994;79;21089;-79
2022/06/09 11:40:43;;;;;;;3.70;1.52;;;;;;;34.49;23.07;100047.17;1797507;79;21006;-78
2022/06/09 11:43:35;;;;;;;2.62;1.40;;;;;;;34.37;23.17;100051.23;1765891;79;39062;-78
2022/06/09 11:46:09;;;;;;;1.57;1.40;;;;;;;34.20;23.27;100047.67;1798701;79;21037;-79
2022/06/09 11:48:41;;;;;;;3.33;1.60;;;;;;;34.07;23.57;100055.27;1817228;78;21043;-77
2022/06/09 11:51:07;;;;;;;2.50;1.40;;;;;;;34.03;23.92;100046.87;1813821;78;20987;-80
2022/06/09 11:53:39;;;;;;;4.20;1.57;;;;;;;33.92;24.23;100047.66;1789206;78;20948;-80
2022/06/09 11:56:40;;;;;;;3.95;1.45;;;;;;;33.81;24.61;100053.44;1817089;78;21070;-79
2022/06/09 11:59:14;;;;;;;;;;;;;;;33.72;24.40;100052.62;1820151;78;21074;-78
2022/06/09 12:02:07;;;;;;;4.75;1.65;;;;;;;33.62;24.38;100050.25;1819594;78;20166;-78
2022/06/09 12:04:45;;;;;;;2.35;1.52;;;;;;;33.42;24.89;100045.91;1819556;78;21093;-79
2022/06/09 12:07:40;;;;;;;4.37;1.60;;;;;;;33.32;24.99;100047.06;1819886;78;21350;-78
2022/06/09 12:10:50;;;;;;;4.28;1.52;;;;;;;33.15;25.42;100048.97;1818644;78;21140;-78
2022/06/09 12:13:26;;;;;;;4.15;1.62;;;;;;;33.03;25.57;100046.81;1817610;78;21050;-78
2022/06/09 12:16:05;;;;;;;3.92;1.47;;;;;;;32.98;25.72;100045.94;1817449;78;21034;-78